Portada
METAR-TAF:

METAR-TAF

Aeroports :

Kasuminome, Japó

latitud: 38-14N, longitud: 140-55E, altitud: 7 m

Observació

L'informe es va fer fa 2 hores i 44 minuts, a les 07:32 UTC
Vent 13 kt del Nord-Oest amb ràfegues de 23 kt
Temperatura 8°C
Humitat 49%
Pressió 1021 hPa
Visibilitat 10 km o més
Escasses núvols a una alçada de 1500 ft
Núvols disperses a una alçada de 3000 ft
Cel ennuvolat a una alçada de 4000 ft
xàfecs de pluja

METAR: RJSU 240732Z 32013G23KT 9999 -SHRA FEW015 SCT030 BKN040 08/M02 Q1021 RMK 1CU015 3CU030 5CU040 A3017

Hora: 19:16 (10:16 UTC)


TAF: manca

Observacions i pronòstics meteorològics de més de 4000 aeroports (METAR i TAF).

Les estacions disponibles són els punts grocs i vermells al mapa.

Posi el ratolí al punt desitjat per veure el nom de l'estació.

Feu clic per veure les observacions i els pronòstics meteorològics.

Per canviar el mapa: feu clic els botons verds amb una creu de color negre per apropar; al botó verd amb un guió per allunyar la imatge; o en les fletxes verdes per a mapes adjacents.


METAR-TAF: